Time;durP1;ratioP1;P1;durP2;ratioP2;P2;SDS_P1;SDS_P2;PMS_P1;PMS_P2;Temp;Humidity;BMP_temperature;BMP_pressure;BME280_temperature;BME280_humidity;BME280_pressure;Samples;Min_cycle;Max_cycle;Signal;HPM_P1;HPM_P2
2022/11/24 00:01:33;;;;;;;0.90;0.90;;;13.80;84.20;;;;;;5092116;28;20195;-62
2022/11/24 00:04:23;;;;;;;0.40;0.40;;;13.80;84.30;;;;;;5092433;28;20563;-62
2022/11/24 00:07:11;;;;;;;0.40;0.40;;;13.80;84.20;;;;;;5092246;28;20207;-62
2022/11/24 00:09:59;;;;;;;0.40;0.40;;;13.80;84.20;;;;;;5091986;28;20196;-62
2022/11/24 00:12:47;;;;;;;0.43;0.43;;;13.80;84.20;;;;;;5092520;28;20726;-62
2022/11/24 00:15:35;;;;;;;0.47;0.47;;;13.80;84.10;;;;;;5091441;28;20275;-62
2022/11/24 00:18:23;;;;;;;0.40;0.40;;;13.70;84.20;;;;;;5052125;28;20205;-62
2022/11/24 00:21:13;;;;;;;0.60;0.60;;;13.70;84.10;;;;;;5052164;28;20809;-62
2022/11/24 00:24:01;;;;;;;0.50;0.50;;;13.60;84.00;;;;;;5053117;28;20252;-62
2022/11/24 00:26:49;;;;;;;0.40;0.40;;;13.60;84.30;;;;;;5054651;28;20575;-62
2022/11/24 00:29:37;;;;;;;0.50;0.50;;;13.60;84.40;;;;;;5051558;28;20200;-62
2022/11/24 00:32:28;;;;;;;1.77;1.63;;;13.50;84.40;;;;;;5052190;28;20205;-62
2022/11/24 00:35:16;;;;;;;0.40;0.40;;;13.50;84.50;;;;;;5052542;28;20202;-62
2022/11/24 00:38:05;;;;;;;0.40;0.40;;;13.50;84.50;;;;;;5047170;28;20720;-62
2022/11/24 00:40:53;;;;;;;0.50;0.50;;;13.60;84.40;;;;;;5044506;28;20586;-62
2022/11/24 00:43:41;;;;;;;0.40;0.40;;;13.50;84.70;;;;;;5051302;28;20296;-62
2022/11/24 00:46:29;;;;;;;0.50;0.50;;;13.40;84.70;;;;;;5052205;28;20231;-62
2022/11/24 00:49:17;;;;;;;1.57;1.47;;;13.60;84.50;;;;;;5051805;28;20193;-62
2022/11/24 00:52:05;;;;;;;0.50;0.50;;;13.70;85.00;;;;;;5051790;28;20231;-62
2022/11/24 00:54:55;;;;;;;0.40;0.40;;;13.80;84.90;;;;;;5051962;28;20256;-62
2022/11/24 00:57:43;;;;;;;0.97;0.97;;;13.90;84.80;;;;;;5051887;28;20420;-62
2022/11/24 01:00:31;;;;;;;0.40;0.40;;;14.10;84.70;;;;;;5050844;28;20221;-62
2022/11/24 01:03:20;;;;;;;0.40;0.40;;;13.90;84.20;;;;;;5052078;28;20685;-62
2022/11/24 01:06:10;;;;;;;2.25;2.15;;;14.00;84.10;;;;;;5051973;28;20602;-62
2022/11/24 01:08:59;;;;;;;1.07;1.07;;;;;;;;;;5051742;28;20305;-62
2022/11/24 01:14:50;;;;;;;1.47;1.37;;;14.00;83.90;;;;;;5051430;28;20208;-62
2022/11/24 01:17:38;;;;;;;1.90;1.80;;;13.90;83.50;;;;;;5066774;28;20283;-62
2022/11/24 01:20:26;;;;;;;0.40;0.40;;;14.10;83.80;;;;;;5070682;28;20221;-62
2022/11/24 01:23:14;;;;;;;0.40;0.40;;;13.90;83.50;;;;;;5071449;28;20220;-62
2022/11/24 01:26:04;;;;;;;0.40;0.40;;;13.80;83.40;;;;;;5070531;28;20196;-62
2022/11/24 01:28:55;;;;;;;1.27;1.27;;;13.90;83.70;;;;;;5070993;28;20205;-62
2022/11/24 01:31:43;;;;;;;0.40;0.40;;;13.80;83.40;;;;;;5070224;28;20205;-62
2022/11/24 01:34:31;;;;;;;0.70;0.70;;;13.80;83.50;;;;;;5071259;28;20443;-62
2022/11/24 01:37:19;;;;;;;0.40;0.40;;;13.70;83.60;;;;;;5074740;28;20625;-62
2022/11/24 01:40:09;;;;;;;0.40;0.40;;;13.70;83.60;;;;;;5074055;28;20221;-63
2022/11/24 01:42:57;;;;;;;0.40;0.40;;;13.60;83.50;;;;;;5074321;28;20225;-62
2022/11/24 01:45:47;;;;;;;0.40;0.40;;;13.60;83.80;;;;;;5074705;28;20207;-62
2022/11/24 01:48:41;;;;;;;0.57;0.57;;;13.60;83.50;;;;;;5074675;28;20438;-61
2022/11/24 01:51:31;;;;;;;3.63;3.43;;;13.50;83.60;;;;;;5074395;28;20676;-62
2022/11/24 01:54:24;;;;;;;1.90;1.80;;;13.50;84.10;;;;;;5073741;28;20244;-62
2022/11/24 01:57:17;;;;;;;0.53;0.53;;;13.40;83.90;;;;;;5074839;28;20207;-62
2022/11/24 02:00:08;;;;;;;0.90;0.90;;;13.40;84.30;;;;;;5074219;28;20458;-62
2022/11/24 02:02:58;;;;;;;0.40;0.40;;;13.40;84.80;;;;;;5073226;28;20863;-62
2022/11/24 02:05:55;;;;;;;0.90;0.90;;;13.40;84.90;;;;;;5075150;28;20431;-62
2022/11/24 02:08:48;;;;;;;0.40;0.40;;;13.60;85.10;;;;;;5096286;28;20256;-61
2022/11/24 02:11:39;;;;;;;0.40;0.40;;;13.80;84.90;;;;;;5095409;28;20204;-65
2022/11/24 02:14:27;;;;;;;0.40;0.40;;;14.00;84.50;;;;;;5095294;28;20227;-62
2022/11/24 02:17:15;;;;;;;1.50;1.40;;;14.20;84.10;;;;;;5094836;28;20201;-62
2022/11/24 02:20:07;;;;;;;0.60;0.60;;;14.30;83.80;;;;;;5070867;28;20463;-62
2022/11/24 02:23:02;;;;;;;3.70;3.60;;;14.50;83.50;;;;;;5075782;28;20681;-62
2022/11/24 02:25:59;;;;;;;0.40;0.40;;;14.50;83.20;;;;;;5075215;28;20677;-62
2022/11/24 02:28:49;;;;;;;0.40;0.40;;;14.60;83.00;;;;;;5074145;28;20791;-62
2022/11/24 02:31:38;;;;;;;3.13;3.03;;;14.70;82.80;;;;;;5071027;28;20665;-62
2022/11/24 02:34:26;;;;;;;0.40;0.40;;;14.70;82.70;;;;;;5066851;28;20295;-62
2022/11/24 02:37:14;;;;;;;0.40;0.40;;;14.80;82.60;;;;;;5075499;28;20280;-62
2022/11/24 02:40:02;;;;;;;7.97;2.43;;;14.80;82.40;;;;;;5074025;28;20304;-62
2022/11/24 02:42:53;;;;;;;0.40;0.40;;;14.80;82.30;;;;;;5074190;28;20252;-62
2022/11/24 02:45:43;;;;;;;0.40;0.40;;;14.70;81.70;;;;;;5074232;28;20637;-62
2022/11/24 02:48:31;;;;;;;0.40;0.40;;;14.70;81.90;;;;;;5074712;28;20209;-62
2022/11/24 02:51:19;;;;;;;0.97;0.97;;;14.70;81.90;;;;;;5074190;28;20691;-63
2022/11/24 02:54:07;;;;;;;0.60;0.60;;;14.60;81.40;;;;;;5073622;28;20264;-63
2022/11/24 02:56:55;;;;;;;0.40;0.40;;;14.60;81.70;;;;;;5074098;28;20625;-63
2022/11/24 02:59:43;;;;;;;0.40;0.40;;;14.50;82.00;;;;;;5073191;28;20275;-63
2022/11/24 03:02:32;;;;;;;0.40;0.40;;;14.40;91.10;;;;;;5074163;28;20292;-63
2022/11/24 03:05:21;;;;;;;0.50;0.50;;;14.50;81.90;;;;;;5074425;28;20197;-63
2022/11/24 03:08:09;;;;;;;0.40;0.40;;;14.40;81.90;;;;;;5073776;28;20207;-65
2022/11/24 03:10:57;;;;;;;0.50;0.50;;;14.30;81.70;;;;;;5073792;28;20287;-62
2022/11/24 03:13:45;;;;;;;0.40;0.40;;;14.20;81.70;;;;;;5075324;28;20370;-64
2022/11/24 03:16:33;;;;;;;0.40;0.40;;;14.10;81.80;;;;;;5070172;28;20772;-62
2022/11/24 03:19:23;;;;;;;0.40;0.40;;;14.10;82.10;;;;;;5072278;28;20277;-63
2022/11/24 03:22:13;;;;;;;0.40;0.40;;;14.00;81.90;;;;;;5073515;28;20223;-63
2022/11/24 03:25:01;;;;;;;0.60;0.60;;;13.90;81.70;;;;;;5073925;28;20617;-62
2022/11/24 03:27:49;;;;;;;0.40;0.40;;;13.80;82.60;;;;;;5072348;28;20743;-62
2022/11/24 03:30:37;;;;;;;0.40;0.40;;;13.80;82.50;;;;;;5073361;28;20267;-62
2022/11/24 03:33:25;;;;;;;0.70;0.70;;;13.80;82.40;;;;;;5072165;28;20212;-63
2022/11/24 03:36:15;;;;;;;0.40;0.40;;;13.40;82.40;;;;;;5072560;28;20709;-63
2022/11/24 03:39:03;;;;;;;0.40;0.40;;;13.60;82.90;;;;;;5072801;28;20201;-67
2022/11/24 03:41:51;;;;;;;0.40;0.40;;;13.60;83.00;;;;;;5071635;28;20223;-62
2022/11/24 03:44:39;;;;;;;0.40;0.40;;;13.40;83.30;;;;;;5071428;28;20254;-62
2022/11/24 03:47:27;;;;;;;0.40;0.40;;;13.50;83.30;;;;;;5072894;28;20679;-62
2022/11/24 03:50:16;;;;;;;3.93;3.60;;;13.60;83.20;;;;;;5071922;28;20331;-62
2022/11/24 03:53:05;;;;;;;0.40;0.40;;;13.60;83.30;;;;;;5071395;28;20534;-62
2022/11/24 03:55:53;;;;;;;0.40;0.40;;;13.60;83.70;;;;;;5072421;28;20583;-62
2022/11/24 03:58:41;;;;;;;1.83;1.77;;;13.70;84.00;;;;;;5071762;28;20207;-62
2022/11/24 04:01:29;;;;;;;0.40;0.40;;;13.80;83.90;;;;;;5072350;28;20489;-63
2022/11/24 04:04:17;;;;;;;0.60;0.60;;;13.80;83.50;;;;;;5072525;28;20220;-63
2022/11/24 04:07:05;;;;;;;3.07;2.87;;;13.80;83.10;;;;;;5072155;28;20672;-63
2022/11/24 04:09:55;;;;;;;0.80;0.80;;;13.80;83.30;;;;;;5072244;28;20281;-63
2022/11/24 04:12:46;;;;;;;0.97;0.97;;;13.80;82.90;;;;;;5071933;28;20626;-65
2022/11/24 04:15:34;;;;;;;0.40;0.40;;;13.80;83.00;;;;;;5071204;28;20506;-63
2022/11/24 04:18:22;;;;;;;0.50;0.50;;;13.80;82.60;;;;;;5073741;28;20443;-63
2022/11/24 04:21:10;;;;;;;0.40;0.40;;;13.70;82.60;;;;;;5071706;28;20216;-63
2022/11/24 04:23:58;;;;;;;0.40;0.40;;;13.80;83.00;;;;;;5072063;28;20313;-63
2022/11/24 04:26:47;;;;;;;0.40;0.40;;;13.80;82.60;;;;;;5071622;28;20207;-63
2022/11/24 04:29:35;;;;;;;0.40;0.40;;;13.80;82.70;;;;;;5072099;28;20226;-63
2022/11/24 04:32:23;;;;;;;0.40;0.40;;;13.70;82.20;;;;;;5071952;28;20279;-62
2022/11/24 04:35:11;;;;;;;0.40;0.40;;;13.70;82.80;;;;;;5072247;28;20275;-62
2022/11/24 04:38:02;;;;;;;0.40;0.40;;;13.70;82.70;;;;;;5072627;28;20284;-65
2022/11/24 04:40:50;;;;;;;0.50;0.50;;;13.60;82.70;;;;;;5071580;28;20197;-64
2022/11/24 04:43:39;;;;;;;0.40;0.40;;;13.60;82.40;;;;;;5071659;28;20346;-64
2022/11/24 04:46:27;;;;;;;0.70;0.70;;;13.50;82.60;;;;;;5075445;28;20200;-63
2022/11/24 04:49:16;;;;;;;0.40;0.40;;;13.50;82.70;;;;;;5074970;28;20200;-63
2022/11/24 04:52:04;;;;;;;0.40;0.40;;;13.60;82.90;;;;;;5069347;28;21010;-62
2022/11/24 04:54:52;;;;;;;0.40;0.40;;;13.50;83.10;;;;;;5072778;28;20712;-65
2022/11/24 04:57:40;;;;;;;3.03;2.93;;;13.40;82.80;;;;;;5071520;28;20232;-64
2022/11/24 05:00:29;;;;;;;0.40;0.40;;;13.40;83.00;;;;;;5071700;28;21070;-64
2022/11/24 05:03:17;;;;;;;0.40;0.40;;;13.30;82.70;;;;;;5071136;28;20431;-62
2022/11/24 05:06:07;;;;;;;0.40;0.40;;;13.30;83.30;;;;;;5071221;28;20279;-62
2022/11/24 05:08:56;;;;;;;0.70;0.70;;;13.30;83.60;;;;;;5071652;28;20322;-63
2022/11/24 05:11:44;;;;;;;2.67;2.47;;;13.70;84.60;;;;;;5076144;28;20192;-63
2022/11/24 05:14:32;;;;;;;1.10;1.10;;;13.90;84.40;;;;;;5076237;28;20299;-63
2022/11/24 05:17:22;;;;;;;2.43;2.33;;;13.90;83.80;;;;;;5075169;28;20419;-65
2022/11/24 05:20:10;;;;;;;0.60;0.60;;;14.10;83.40;;;;;;5075625;28;20258;-63
2022/11/24 05:23:01;;;;;;;0.50;0.50;;;14.30;83.00;;;;;;5075428;28;20221;-62
2022/11/24 05:25:50;;;;;;;1.47;1.40;;;14.50;82.70;;;;;;5073833;28;20232;-63
2022/11/24 05:28:38;;;;;;;0.40;0.40;;;14.60;82.40;;;;;;5075413;28;20201;-63
2022/11/24 05:31:26;;;;;;;0.40;0.40;;;14.70;82.20;;;;;;5076155;28;20207;-63
2022/11/24 05:34:17;;;;;;;1.17;1.17;;;14.80;81.90;;;;;;5076671;28;20224;-63
2022/11/24 05:37:05;;;;;;;1.77;1.23;;;14.80;81.70;;;;;;5076143;28;20203;-63
2022/11/24 05:39:54;;;;;;;0.50;0.50;;;14.90;81.60;;;;;;5076999;28;20656;-65
2022/11/24 05:42:42;;;;;;;0.57;0.57;;;14.80;81.30;;;;;;5075558;28;20228;-63
2022/11/24 05:45:35;;;;;;;0.77;0.77;;;14.90;81.30;;;;;;5075767;28;20204;-63
2022/11/24 05:48:23;;;;;;;0.40;0.40;;;14.90;81.10;;;;;;5076895;28;20201;-63
2022/11/24 05:51:12;;;;;;;0.40;0.40;;;14.90;80.70;;;;;;5075470;28;20196;-63
2022/11/24 05:54:00;;;;;;;0.60;0.60;;;14.80;80.60;;;;;;5075731;28;20323;-63
2022/11/24 05:56:48;;;;;;;0.40;0.40;;;14.80;80.50;;;;;;5076054;28;20284;-63
2022/11/24 05:59:37;;;;;;;0.40;0.40;;;14.70;80.00;;;;;;5075620;28;20232;-63
2022/11/24 06:02:25;;;;;;;0.40;0.40;;;14.60;86.50;;;;;;5075045;28;20223;-63
2022/11/24 06:05:14;;;;;;;0.40;0.40;;;14.60;80.70;;;;;;5075261;28;20235;-63
2022/11/24 06:08:03;;;;;;;0.40;0.40;;;14.50;80.50;;;;;;5075395;28;20193;-62
2022/11/24 06:10:51;;;;;;;2.92;2.78;;;14.50;80.70;;;;;;5075983;28;20279;-63
2022/11/24 06:13:41;;;;;;;0.50;0.50;;;14.40;81.00;;;;;;5075958;28;20270;-63
2022/11/24 06:16:29;;;;;;;0.40;0.40;;;14.30;80.50;;;;;;5073842;28;20680;-63
2022/11/24 06:19:17;;;;;;;0.40;0.40;;;14.20;80.40;;;;;;5074067;28;20205;-63
2022/11/24 06:22:05;;;;;;;0.88;0.88;;;14.10;80.60;;;;;;5073698;28;20223;-63
2022/11/24 06:24:55;;;;;;;0.50;0.50;;;13.90;80.60;;;;;;5074712;28;20197;-63
2022/11/24 06:27:43;;;;;;;1.17;1.17;;;14.00;81.30;;;;;;5074936;28;20346;-63
2022/11/24 06:30:31;;;;;;;0.40;0.40;;;13.90;80.80;;;;;;5074957;28;20773;-64
2022/11/24 06:33:19;;;;;;;0.40;0.40;;;13.90;81.10;;;;;;5074071;28;20223;-65
2022/11/24 06:36:09;;;;;;;0.50;0.50;;;13.80;81.50;;;;;;5074644;28;20200;-63
2022/11/24 06:38:57;;;;;;;0.40;0.40;;;13.80;81.60;;;;;;5073512;28;20196;-65
2022/11/24 06:41:49;;;;;;;0.40;0.40;;;13.70;81.80;;;;;;5078132;28;20200;-63
2022/11/24 06:44:38;;;;;;;0.40;0.40;;;13.60;82.20;;;;;;5089010;28;20301;-64
2022/11/24 06:47:26;;;;;;;0.50;0.50;;;13.60;81.90;;;;;;5074627;28;20292;-63
2022/11/24 06:50:14;;;;;;;0.40;0.40;;;13.60;83.10;;;;;;5075234;28;20193;-63
2022/11/24 06:53:02;;;;;;;0.40;0.40;;;13.60;83.70;;;;;;5078381;28;20353;-63
2022/11/24 06:55:51;;;;;;;1.30;1.20;;;13.70;84.40;;;;;;5076690;28;20592;-63
2022/11/24 06:58:43;;;;;;;0.40;0.40;;;13.60;84.40;;;;;;5077502;28;20235;-63
2022/11/24 07:01:31;;;;;;;0.50;0.50;;;13.60;84.20;;;;;;5078041;28;20284;-63
2022/11/24 07:04:19;;;;;;;0.50;0.50;;;13.70;84.90;;;;;;5075591;28;20337;-64
2022/11/24 07:07:07;;;;;;;0.70;0.70;;;13.70;84.80;;;;;;5077062;28;20338;-63
2022/11/24 07:09:55;;;;;;;0.40;0.40;;;13.70;84.70;;;;;;5072233;28;20200;-63
2022/11/24 07:12:43;;;;;;;0.40;0.40;;;13.80;85.20;;;;;;5073841;28;20303;-64
2022/11/24 07:15:33;;;;;;;0.40;0.40;;;13.80;84.70;;;;;;5074555;28;20200;-63
2022/11/24 07:18:21;;;;;;;0.40;0.40;;;13.70;84.20;;;;;;5077924;28;20199;-64
2022/11/24 07:21:09;;;;;;;0.90;0.90;;;13.80;84.70;;;;;;5071504;28;20275;-64
2022/11/24 07:23:58;;;;;;;0.40;0.40;;;13.80;85.10;;;;;;5077210;28;20664;-63
2022/11/24 07:26:46;;;;;;;8.50;7.70;;;13.80;85.60;;;;;;5093361;28;20296;-63
2022/11/24 07:29:34;;;;;;;0.50;0.50;;;13.80;86.80;;;;;;5055506;28;20287;-63
2022/11/24 07:32:23;;;;;;;0.40;0.40;;;13.80;92.50;;;;;;5073891;28;20225;-63
2022/11/24 07:35:11;;;;;;;0.40;0.40;;;13.80;88.70;;;;;;5074992;28;20275;-63
2022/11/24 07:37:59;;;;;;;0.60;0.60;;;13.80;89.20;;;;;;5074693;28;20357;-64
2022/11/24 07:40:47;;;;;;;0.50;0.50;;;13.80;89.90;;;;;;5077489;28;20672;-64
2022/11/24 07:43:36;;;;;;;0.50;0.50;;;13.80;89.70;;;;;;5081126;28;20354;-63
2022/11/24 07:46:24;;;;;;;0.40;0.40;;;13.80;89.60;;;;;;5073735;28;20203;-63
2022/11/24 07:49:14;;;;;;;0.40;0.40;;;13.70;90.10;;;;;;5074423;28;20579;-63
2022/11/24 07:52:03;;;;;;;0.40;0.40;;;13.70;90.30;;;;;;5073763;28;20205;-63
2022/11/24 07:54:52;;;;;;;0.90;0.87;;;13.70;89.30;;;;;;5072480;28;20335;-62
2022/11/24 07:57:40;;;;;;;0.40;0.40;;;13.60;90.30;;;;;;5075976;28;20207;-62
2022/11/24 08:00:28;;;;;;;0.40;0.40;;;13.60;90.10;;;;;;5077790;28;20283;-63
2022/11/24 08:03:16;;;;;;;0.40;0.40;;;13.60;89.60;;;;;;5086666;28;20299;-63
2022/11/24 08:06:06;;;;;;;0.50;0.50;;;13.60;90.70;;;;;;5093412;28;20203;-63
2022/11/24 08:09:14;;;;;;;0.53;0.53;;;13.60;90.20;;;;;;5091962;28;20513;-63
2022/11/24 08:12:02;;;;;;;0.40;0.40;;;13.60;90.40;;;;;;5091653;28;20276;-63
2022/11/24 08:14:50;;;;;;;0.80;0.80;;;13.60;90.50;;;;;;5072715;28;20570;-62
2022/11/24 08:17:38;;;;;;;0.53;0.53;;;13.60;90.90;;;;;;5071854;28;20196;-63
2022/11/24 08:20:26;;;;;;;0.40;0.40;;;13.70;90.90;;;;;;5073167;28;20449;-63
2022/11/24 08:23:16;;;;;;;0.40;0.40;;;13.70;90.60;;;;;;5072855;28;20703;-63
2022/11/24 08:26:07;;;;;;;3.23;2.93;;;13.80;91.00;;;;;;5071863;28;20197;-63
2022/11/24 08:28:57;;;;;;;0.40;0.40;;;13.80;91.10;;;;;;5072467;28;20279;-63
2022/11/24 08:31:45;;;;;;;0.73;0.73;;;13.90;91.20;;;;;;5071684;28;20236;-62
2022/11/24 08:34:33;;;;;;;0.40;0.40;;;13.90;90.40;;;;;;5072934;28;20213;-63
2022/11/24 08:37:23;;;;;;;0.40;0.40;;;14.00;90.50;;;;;;5073251;28;20207;-63
2022/11/24 08:40:14;;;;;;;0.40;0.40;;;14.00;90.20;;;;;;5072197;28;20581;-63
2022/11/24 08:43:02;;;;;;;0.40;0.40;;;14.00;90.30;;;;;;5079564;28;20280;-63
2022/11/24 08:45:50;;;;;;;1.43;1.43;;;14.10;90.20;;;;;;5088193;28;20201;-63
2022/11/24 08:48:38;;;;;;;0.40;0.40;;;14.00;90.20;;;;;;5090019;28;20205;-63
2022/11/24 08:51:27;;;;;;;0.40;0.40;;;14.00;90.40;;;;;;5090272;28;20192;-63
2022/11/24 08:54:17;;;;;;;0.40;0.40;;;14.00;90.80;;;;;;5080474;28;20723;-63
2022/11/24 08:57:06;;;;;;;0.40;0.40;;;13.90;90.50;;;;;;5075153;28;20200;-63
2022/11/24 08:59:54;;;;;;;2.23;2.03;;;13.90;90.70;;;;;;5072503;28;20579;-63
2022/11/24 09:02:42;;;;;;;0.40;0.40;;;13.90;90.60;;;;;;5072203;28;20266;-63
2022/11/24 09:05:32;;;;;;;0.40;0.40;;;13.90;90.50;;;;;;5072306;28;20218;-63
2022/11/24 09:08:40;;;;;;;1.00;1.00;;;13.90;90.70;;;;;;5073613;28;20446;-64
2022/11/24 09:11:29;;;;;;;0.40;0.40;;;13.80;90.70;;;;;;5074407;28;20288;-63
2022/11/24 09:14:18;;;;;;;2.63;2.10;;;13.80;90.80;;;;;;5072262;28;20313;-62
2022/11/24 09:17:07;;;;;;;0.40;0.40;;;13.80;90.90;;;;;;5075683;28;20284;-63
2022/11/24 09:19:55;;;;;;;0.40;0.40;;;13.70;91.00;;;;;;5071748;28;20208;-63
2022/11/24 09:22:43;;;;;;;0.80;0.80;;;13.70;90.90;;;;;;5071206;28;20959;-63
2022/11/24 09:25:32;;;;;;;0.40;0.40;;;13.60;90.80;;;;;;5072487;28;20426;-63
2022/11/24 09:28:20;;;;;;;0.50;0.50;;;13.70;91.10;;;;;;5071392;28;20279;-63
2022/11/24 09:31:12;;;;;;;1.97;1.87;;;13.70;91.20;;;;;;5072525;28;20204;-63
2022/11/24 09:34:00;;;;;;;0.60;0.60;;;13.80;91.10;;;;;;5074036;28;20281;-63
2022/11/24 09:36:50;;;;;;;2.13;2.03;;;13.90;90.90;;;;;;5073313;28;20286;-62
2022/11/24 09:39:38;;;;;;;0.40;0.40;;;14.10;90.90;;;;;;5074852;28;20209;-63
2022/11/24 09:42:39;;;;;;;3.07;2.97;;;14.30;90.80;;;;;;5092560;28;20684;-63
2022/11/24 09:45:39;;;;;;;0.40;0.40;;;14.30;90.80;;;;;;5079170;28;20458;-63
2022/11/24 09:48:52;;;;;;;1.53;1.43;;;14.40;90.80;;;;;;5072280;28;20770;-63
2022/11/24 09:51:44;;;;;;;2.20;2.10;;;14.40;90.70;;;;;;5072510;28;20678;-63
2022/11/24 09:54:34;;;;;;;0.40;0.40;;;14.50;90.70;;;;;;5072710;28;20334;-63
2022/11/24 09:57:26;;;;;;;0.40;0.40;;;14.50;91.00;;;;;;5075339;28;20229;-63
2022/11/24 10:00:18;;;;;;;0.40;0.40;;;14.50;91.30;;;;;;5074886;28;20430;-63
2022/11/24 10:03:14;;;;;;;0.40;0.40;;;14.50;90.90;;;;;;5075492;28;20306;-63
2022/11/24 10:06:12;;;;;;;0.43;0.43;;;14.50;90.70;;;;;;5077376;28;20206;-63
2022/11/24 10:09:13;;;;;;;0.60;0.60;;;14.50;90.80;;;;;;5075307;28;20201;-63
2022/11/24 10:12:12;;;;;;;0.40;0.40;;;14.50;90.90;;;;;;5075181;28;20690;-63
2022/11/24 10:15:24;;;;;;;0.40;0.40;;;14.50;91.00;;;;;;5075414;28;20224;-63
2022/11/24 10:18:41;;;;;;;0.40;0.40;;;14.50;90.90;;;;;;5075312;28;20291;-63
2022/11/24 10:21:51;;;;;;;0.40;0.40;;;14.50;91.20;;;;;;5074437;28;20279;-63
2022/11/24 10:25:05;;;;;;;0.40;0.40;;;14.40;91.10;;;;;;5076034;28;20302;-63
2022/11/24 10:27:58;;;;;;;1.47;1.47;;;14.30;91.10;;;;;;5075190;28;20288;-63
2022/11/24 10:30:46;;;;;;;0.40;0.40;;;14.30;91.50;;;;;;5074855;28;20200;-63
2022/11/24 10:33:35;;;;;;;3.03;2.00;;;14.20;91.60;;;;;;5075192;28;20606;-63
2022/11/24 10:36:37;;;;;;;0.40;0.40;;;14.20;91.30;;;;;;5074255;28;20202;-63
2022/11/24 10:39:33;;;;;;;0.40;0.40;;;14.20;91.40;;;;;;5074247;28;20200;-63
2022/11/24 10:42:27;;;;;;;0.40;0.40;;;14.10;91.00;;;;;;5074853;28;20197;-63
2022/11/24 10:45:18;;;;;;;0.50;0.50;;;14.60;91.30;;;;;;5074439;28;20213;-63
2022/11/24 10:48:18;;;;;;;0.40;0.40;;;14.00;91.10;;;;;;5075272;28;20285;-63
2022/11/24 10:51:28;;;;;;;0.40;0.40;;;14.00;91.00;;;;;;5073148;28;20783;-62
2022/11/24 10:54:18;;;;;;;3.22;3.13;;;14.00;91.90;;;;;;5098378;22;20248;-64
2022/11/24 10:57:08;;;;;;;0.40;0.40;;;14.00;92.00;;;;;;5073704;28;20280;-66
2022/11/24 10:59:56;;;;;;;0.40;0.40;;;14.00;91.60;;;;;;5073097;28;20279;-64
2022/11/24 11:02:45;;;;;;;0.40;0.40;;;14.00;91.90;;;;;;5065918;28;20216;-64
2022/11/24 11:05:41;;;;;;;0.40;0.40;;;13.90;91.50;;;;;;5073710;28;20216;-63
2022/11/24 11:08:31;;;;;;;0.40;0.40;;;14.00;91.50;;;;;;5072990;28;20236;-64
2022/11/24 11:11:22;;;;;;;0.40;0.40;;;14.00;91.70;;;;;;5073046;28;20293;-65
2022/11/24 11:14:12;;;;;;;0.40;0.40;;;13.90;91.80;;;;;;5074087;28;20451;-64
2022/11/24 11:17:01;;;;;;;0.40;0.40;;;14.00;91.60;;;;;;5064088;28;20358;-64
2022/11/24 11:19:51;;;;;;;0.40;0.40;;;14.00;91.60;;;;;;5054106;28;20680;-64
2022/11/24 11:22:49;;;;;;;0.40;0.40;;;14.00;91.60;;;;;;5067104;28;20197;-65
2022/11/24 11:25:39;;;;;;;0.70;0.70;;;14.00;91.80;;;;;;5061052;28;20796;-65
2022/11/24 11:28:29;;;;;;;0.40;0.40;;;14.00;91.90;;;;;;5054299;28;20872;-64
2022/11/24 11:31:20;;;;;;;0.40;0.40;;;14.00;92.00;;;;;;5056576;28;20898;-63
2022/11/24 11:34:14;;;;;;;0.40;0.40;;;14.00;92.10;;;;;;5073470;28;20773;-63
2022/11/24 11:37:16;;;;;;;0.40;0.40;;;14.00;92.10;;;;;;5073550;28;20542;-65
2022/11/24 11:40:11;;;;;;;0.70;0.70;;;13.90;92.10;;;;;;5072763;28;20212;-64
2022/11/24 11:43:05;;;;;;;0.40;0.40;;;13.90;92.40;;;;;;5056893;28;20296;-64
2022/11/24 11:46:01;;;;;;;0.40;0.40;;;13.90;92.10;;;;;;5052944;28;20217;-64
2022/11/24 11:48:51;;;;;;;0.60;0.60;;;13.90;92.10;;;;;;5052769;28;20697;-64
2022/11/24 11:51:52;;;;;;;0.40;0.40;;;13.90;92.20;;;;;;5044292;28;21003;-63
2022/11/24 11:55:04;;;;;;;0.40;0.40;;;13.90;92.30;;;;;;5051937;28;20451;-64
2022/11/24 11:58:06;;;;;;;0.40;0.40;;;13.80;92.40;;;;;;5052022;28;20425;-63
2022/11/24 12:01:01;;;;;;;0.40;0.40;;;13.80;92.00;;;;;;5052230;28;20420;-64
2022/11/24 12:04:01;;;;;;;0.40;0.40;;;13.80;92.00;;;;;;5067936;28;20307;-66
2022/11/24 12:07:15;;;;;;;0.40;0.40;;;13.80;92.00;;;;;;5072845;28;20434;-64
2022/11/24 12:10:13;;;;;;;0.50;0.50;;;13.80;92.10;;;;;;5066713;28;20426;-67
2022/11/24 12:13:19;;;;;;;1.70;1.70;;;13.90;92.40;;;;;;5072042;28;20311;-65
2022/11/24 12:16:16;;;;;;;0.47;0.47;;;13.90;92.20;;;;;;5070920;28;20687;-65
2022/11/24 12:19:19;;;;;;;0.50;0.50;;;13.90;92.40;;;;;;5051177;28;20201;-67
2022/11/24 12:22:13;;;;;;;0.93;0.93;;;13.90;92.80;;;;;;5051177;28;20339;-63
2022/11/24 12:25:16;;;;;;;0.40;0.40;;;14.00;92.20;;;;;;5052532;28;20895;-64
2022/11/24 12:28:18;;;;;;;0.40;0.40;;;14.00;92.30;;;;;;5052415;28;20201;-64
2022/11/24 12:31:08;;;;;;;0.70;0.70;;;14.00;92.50;;;;;;5052808;28;20280;-65
2022/11/24 12:34:14;;;;;;;0.40;0.40;;;14.10;92.20;;;;;;5046939;28;20608;-65
2022/11/24 12:37:22;;;;;;;0.40;0.40;;;14.10;92.20;;;;;;5051848;28;20224;-65
2022/11/24 12:40:15;;;;;;;1.30;1.30;;;14.10;92.10;;;;;;5051773;28;20201;-65
2022/11/24 12:43:11;;;;;;;0.50;0.50;;;14.10;92.10;;;;;;5072515;28;20656;-64
2022/11/24 12:46:07;;;;;;;0.40;0.40;;;14.20;92.20;;;;;;5071900;28;20256;-64
2022/11/24 12:49:12;;;;;;;0.40;0.40;;;14.20;92.50;;;;;;5071897;28;20204;-66
2022/11/24 12:52:05;;;;;;;0.47;0.47;;;14.20;92.10;;;;;;5071134;28;20249;-65
2022/11/24 12:54:56;;;;;;;0.50;0.50;;;14.20;92.30;;;;;;5071991;28;20299;-64
2022/11/24 12:57:51;;;;;;;0.40;0.40;;;14.20;92.20;;;;;;5072345;28;20203;-64
2022/11/24 13:00:48;;;;;;;0.40;0.40;;;14.10;92.20;;;;;;5071427;28;20323;-64
2022/11/24 13:03:46;;;;;;;0.40;0.40;;;14.10;92.10;;;;;;5072280;28;20434;-64
2022/11/24 13:06:44;;;;;;;0.40;0.40;;;14.20;92.10;;;;;;5071216;28;20224;-63
2022/11/24 13:09:37;;;;;;;0.40;0.40;;;14.10;92.20;;;;;;5071508;28;20578;-62
2022/11/24 13:12:25;;;;;;;0.40;0.40;;;14.10;92.40;;;;;;5072394;28;20508;-64
2022/11/24 13:15:16;;;;;;;1.90;1.80;;;14.10;92.30;;;;;;5071801;28;20791;-64
2022/11/24 13:18:45;;;;;;;0.40;0.40;;;14.10;92.20;;;;;;5032312;28;20413;-64
2022/11/24 13:21:49;;;;;;;0.40;0.40;;;14.10;92.40;;;;;;5031256;28;20205;-64
2022/11/24 13:24:39;;;;;;;0.40;0.40;;;14.10;92.90;;;;;;5050119;28;20306;-62
2022/11/24 13:27:39;;;;;;;0.40;0.40;;;14.10;92.70;;;;;;5052329;28;20280;-64
2022/11/24 13:30:55;;;;;;;0.40;0.40;;;14.10;92.90;;;;;;5052029;28;20264;-63
2022/11/24 13:33:43;;;;;;;0.40;0.40;;;14.20;92.70;;;;;;5055279;28;20221;-63
2022/11/24 13:36:33;;;;;;;1.63;1.53;;;14.20;92.80;;;;;;5055236;28;20276;-64
2022/11/24 13:39:22;;;;;;;0.40;0.40;;;14.30;93.00;;;;;;5055029;28;20447;-67
2022/11/24 13:42:11;;;;;;;0.50;0.50;;;14.30;93.00;;;;;;5054610;28;20212;-66
2022/11/24 13:45:50;;;;;;;0.40;0.40;;;14.30;92.50;;;;;;5035325;28;20217;-64
2022/11/24 13:48:59;;;;;;;0.40;0.40;;;14.40;92.40;;;;;;5035111;28;20739;-64
2022/11/24 13:51:47;;;;;;;0.40;0.40;;;14.40;92.30;;;;;;5036216;28;20524;-63
2022/11/24 13:54:41;;;;;;;0.40;0.40;;;14.40;92.40;;;;;;5034865;28;20236;-63
2022/11/24 13:57:35;;;;;;;0.40;0.40;;;14.40;92.30;;;;;;5035521;28;20700;-63
2022/11/24 14:00:26;;;;;;;0.40;0.40;;;14.50;92.30;;;;;;5035213;28;20225;-64
2022/11/24 14:03:20;;;;;;;0.40;0.40;;;14.50;92.30;;;;;;5034487;28;20722;-67
2022/11/24 14:06:16;;;;;;;0.40;0.40;;;14.40;92.40;;;;;;5034761;28;20218;-66
2022/11/24 14:09:19;;;;;;;0.40;0.40;;;14.40;92.30;;;;;;5034856;28;20206;-66
2022/11/24 14:12:13;;;;;;;0.40;0.40;;;14.40;92.20;;;;;;5035257;28;20280;-64
2022/11/24 14:15:22;;;;;;;0.40;0.40;;;14.40;92.20;;;;;;5034429;28;20688;-62
2022/11/24 14:18:16;;;;;;;0.40;0.40;;;14.40;92.30;;;;;;5049989;28;20685;-66
2022/11/24 14:21:23;;;;;;;0.50;0.50;;;14.40;92.20;;;;;;5054142;28;20213;-67
2022/11/24 14:24:18;;;;;;;0.40;0.40;;;14.30;92.20;;;;;;5055478;28;20220;-66
2022/11/24 14:27:13;;;;;;;0.40;0.40;;;14.30;92.20;;;;;;5054544;28;20308;-67
2022/11/24 14:30:03;;;;;;;0.60;0.60;;;14.30;92.20;;;;;;5054134;28;20759;-65
2022/11/24 14:32:57;;;;;;;0.40;0.40;;;14.30;92.50;;;;;;5055292;28;20224;-65
2022/11/24 14:35:47;;;;;;;0.40;0.40;;;14.20;92.50;;;;;;5054590;28;20549;-64
2022/11/24 14:38:35;;;;;;;0.50;0.50;;;14.30;92.90;;;;;;5054805;28;20207;-65
2022/11/24 14:41:27;;;;;;;2.60;2.50;;;14.30;93.20;;;;;;5054298;28;20197;-65
2022/11/24 14:44:19;;;;;;;0.60;0.60;;;14.30;93.10;;;;;;5054982;28;20774;-67
2022/11/24 14:47:22;;;;;;;0.40;0.40;;;14.40;93.00;;;;;;5053918;28;20308;-67
2022/11/24 14:50:22;;;;;;;0.40;0.40;;;14.40;93.00;;;;;;5054355;28;20314;-66
2022/11/24 14:53:14;;;;;;;0.40;0.40;;;14.40;93.10;;;;;;5053922;28;20604;-67
2022/11/24 14:56:20;;;;;;;0.40;0.40;;;14.40;93.20;;;;;;5053678;28;20276;-66
2022/11/24 14:59:21;;;;;;;0.40;0.40;;;14.40;93.10;;;;;;5054146;28;20205;-66